.
WxDataArchive / Data Records for 2013-11-14
2013-11-13 November 2013 2013-11-15

Data Records for Thursday, 14 November 2013

Time	Temp	Chill	HIndex	Humid	Dewpt	 Wind 	HiWind	WindDir	Rain 	Barom 
-----	----	-----	------	-----	-----	------	------	-------	-----	----- 
00:00	31.8	31.8	31.8	55	17.5	2	7	248	0.00	30.278 
00:05	31.8	31.8	31.8	55	17.5	2	6	248	0.00	30.278 
00:10	31.6	31.6	31.6	55	17.3	3	7	248	0.00	30.278 
00:15	31.6	31.6	31.6	55	17.3	2	5	248	0.00	30.267 
00:20	31.6	31.6	31.6	55	17.3	2	6	248	0.00	30.267 
00:25	31.6	31.6	31.6	55	17.3	3	9	248	0.00	30.267 
00:30	31.5	31.5	31.5	56	17.6	2	5	248	0.00	30.268 
00:35	31.5	31.5	31.5	56	17.6	2	6	248	0.00	30.268 
00:40	31.5	31.5	31.5	56	17.6	2	7	248	0.00	30.268 
00:45	31.5	31.5	31.5	56	17.6	1	5	270	0.00	30.263 
00:50	31.5	31.5	31.5	56	17.6	3	9	248	0.00	30.263 
00:55	31.5	31.5	31.5	56	17.6	2	5	248	0.00	30.263 
01:00	31.5	31.5	31.5	56	17.6	1	4	248	0.00	30.259 
01:05	31.5	31.5	31.5	57	18.0	1	7	225	0.00	30.259 
01:10	31.3	31.3	31.3	57	17.9	1	4	248	0.00	30.259 
01:15	31.3	31.3	31.3	57	17.9	2	6	248	0.00	30.254 
01:20	31.5	31.5	31.5	57	18.0	2	6	248	0.00	30.254 
01:25	31.5	31.5	31.5	57	18.0	1	6	248	0.00	30.254 
01:30	31.5	31.5	31.5	57	18.0	1	5	248	0.00	30.248 
01:35	31.5	31.5	31.5	57	18.0	2	7	248	0.00	30.248 
01:40	31.5	31.5	31.5	58	18.4	1	7	248	0.00	30.248 
01:45	31.5	31.5	31.5	58	18.4	2	5	248	0.00	30.243 
01:50	31.6	31.6	31.6	58	18.5	1	4	248	0.00	30.243 
01:55	31.6	31.6	31.6	58	18.5	1	5	248	0.00	30.243 
02:00	31.6	31.6	31.6	58	18.5	1	5	248	0.00	30.243 
02:05	31.6	31.6	31.6	58	18.5	2	9	248	0.00	30.243 
02:10	31.8	31.8	31.8	58	18.7	1	5	248	0.00	30.243 
02:15	31.6	31.6	31.6	58	18.5	1	5	248	0.00	30.243 
02:20	31.8	31.8	31.8	58	18.7	1	6	248	0.00	30.243 
02:25	31.8	31.8	31.8	58	18.7	1	4	248	0.00	30.243 
02:30	31.9	31.9	31.9	58	18.8	2	6	248	0.00	30.244 
02:35	31.9	31.9	31.9	58	18.8	1	6	248	0.00	30.244 
02:40	31.9	31.9	31.9	58	18.8	2	9	248	0.00	30.244 
02:45	31.9	31.9	31.9	58	18.8	1	6	248	0.00	30.243 
02:50	31.9	31.9	31.9	58	18.8	1	10	248	0.00	30.243 
02:55	31.9	31.9	31.9	58	18.8	2	7	248	0.00	30.243 
03:00	31.9	31.9	31.9	58	18.8	2	5	270	0.00	30.239 
03:05	31.9	31.9	31.9	58	18.8	2	5	248	0.00	30.239 
03:10	31.9	31.9	31.9	58	18.8	2	6	248	0.00	30.239 
03:15	32.1	32.1	32.1	58	19.0	2	5	248	0.00	30.239 
03:20	32.1	32.1	32.1	58	19.0	2	9	248	0.00	30.239 
03:25	32.1	32.1	32.1	58	19.0	2	6	248	0.00	30.239 
03:30	32.1	32.1	32.1	58	19.0	2	6	248	0.00	30.239 
03:35	32.1	32.1	32.1	58	19.0	1	4	248	0.00	30.239 
03:40	32.1	32.1	32.1	58	19.0	2	9	248	0.00	30.239 
03:45	32.1	32.1	32.1	58	19.0	2	5	248	0.00	30.238 
03:50	32.1	32.1	32.1	58	19.0	2	5	248	0.00	30.238 
03:55	32.1	32.1	32.1	59	19.4	2	5	248	0.00	30.238 
04:00	31.9	31.9	31.9	59	19.2	2	5	248	0.00	30.239 
04:05	31.9	31.9	31.9	59	19.2	2	5	248	0.00	30.239 
04:10	31.9	31.9	31.9	59	19.2	2	10	248	0.00	30.239 
04:15	31.9	31.9	31.9	59	19.2	2	4	248	0.00	30.241 
04:20	31.8	31.8	31.8	59	19.1	1	5	248	0.00	30.241 
04:25	31.8	31.8	31.8	60	19.5	1	4	248	0.00	30.241 
04:30	31.6	31.6	31.6	60	19.3	1	5	248	0.00	30.242 
04:35	31.6	31.6	31.6	60	19.3	2	7	248	0.00	30.242 
04:40	31.6	31.6	31.6	60	19.3	1	3	248	0.00	30.242 
04:45	31.5	31.5	31.5	60	19.2	1	4	248	0.00	30.242 
04:50	31.5	31.5	31.5	60	19.2	1	6	248	0.00	30.242 
04:55	31.5	31.5	31.5	60	19.2	1	5	248	0.00	30.242 
05:00	31.5	31.5	31.5	60	19.2	2	5	248	0.00	30.242 
05:05	31.5	31.5	31.5	60	19.2	1	7	248	0.00	30.242 
05:10	31.3	31.3	31.3	60	19.0	2	5	248	0.00	30.242 
05:15	31.5	31.5	31.5	61	19.6	2	7	248	0.00	30.241 
05:20	31.5	31.5	31.5	61	19.6	2	6	248	0.00	30.241 
05:25	31.5	31.5	31.5	60	19.2	2	9	248	0.00	30.241 
05:30	31.3	31.3	31.3	61	19.4	1	4	248	0.00	30.232 
05:35	31.3	31.3	31.3	61	19.4	1	4	248	0.00	30.232 
05:40	31.3	31.3	31.3	61	19.4	1	4	248	0.00	30.232 
05:45	31.2	31.2	31.2	61	19.3	1	4	248	0.00	30.227 
05:50	31.2	31.2	31.2	62	19.7	1	4	248	0.00	30.227 
05:55	31.0	31.0	31.0	62	19.5	0	3	248	0.00	30.227 
06:00	30.9	30.9	30.9	62	19.4	1	3	248	0.00	30.226 
06:05	30.7	30.7	30.7	63	19.6	1	4	248	0.00	30.226 
06:10	30.7	30.7	30.7	63	19.6	1	6	248	0.00	30.226 
06:15	30.7	30.7	30.7	63	19.6	1	4	248	0.00	30.225 
06:20	30.7	30.7	30.7	63	19.6	1	3	248	0.00	30.225 
06:25	30.6	30.6	30.6	64	19.9	0	3	248	0.00	30.225 
06:30	30.6	30.6	30.6	64	19.9	1	5	248	0.00	30.226 
06:35	30.6	30.6	30.6	64	19.9	1	6	248	0.00	30.226 
06:40	30.6	30.6	30.6	64	19.9	1	3	248	0.00	30.226 
06:45	30.6	30.6	30.6	64	19.9	1	5	248	0.00	30.223 
06:50	30.6	30.6	30.6	64	19.9	1	4	248	0.00	30.223 
06:55	30.6	30.6	30.6	64	19.9	1	6	248	0.00	30.223 
07:00	30.4	30.4	30.4	65	20.1	1	4	248	0.00	30.218 
07:05	30.3	30.3	30.3	65	20.0	1	3	248	0.00	30.218 
07:10	30.1	30.1	30.1	65	19.8	0	3	248	0.00	30.218 
07:15	30.0	30.0	30.0	66	20.0	0	3	248	0.00	30.216 
07:20	30.0	30.0	30.0	66	20.0	0	3	248	0.00	30.216 
07:25	29.8	29.8	29.8	66	19.8	1	5	248	0.00	30.216 
07:30	29.8	29.8	29.8	66	19.8	0	3	248	0.00	30.215 
07:35	29.8	29.8	29.8	66	19.8	0	2	248	0.00	30.215 
07:40	29.7	29.7	29.7	66	19.8	0	4	248	0.00	30.215 
07:45	29.7	29.7	29.7	66	19.8	1	4	248	0.00	30.213 
07:50	29.8	29.8	29.8	66	19.8	0	2	248	0.00	30.213 
07:55	29.8	29.8	29.8	66	19.8	1	4	248	0.00	30.213 
08:00	30.0	30.0	30.0	66	20.0	1	4	248	0.00	30.214 
08:05	30.3	30.3	30.3	65	20.0	0	3	248	0.00	30.214 
08:10	30.6	30.6	30.6	65	20.3	1	6	248	0.00	30.214 
08:15	30.9	30.9	30.9	64	20.2	1	4	248	0.00	30.212 
08:20	31.2	31.2	31.2	63	20.1	1	4	248	0.00	30.212 
08:25	31.5	31.5	31.5	62	20.0	1	2	292	0.00	30.212 
08:30	31.6	31.6	31.6	62	20.1	1	4	248	0.00	30.209 
08:35	31.8	31.8	31.8	62	20.3	1	5	248	0.00	30.209 
08:40	31.9	31.9	31.9	61	20.0	1	3	248	0.00	30.209 
08:45	32.2	32.2	32.2	61	20.3	1	4	248	0.00	30.204 
08:50	32.4	32.4	32.4	60	20.1	1	5	270	0.00	30.204 
08:55	32.7	32.7	32.7	60	20.4	1	3	248	0.00	30.204 
09:00	32.9	32.9	32.9	59	20.2	1	4	248	0.00	30.206 
09:05	33.4	33.4	33.4	58	20.2	2	9	270	0.00	30.206 
09:10	33.7	33.7	33.7	58	20.5	2	9	248	0.00	30.206 
09:15	34.0	34.0	34.0	57	20.4	2	7	248	0.00	30.201 
09:20	34.3	34.3	34.3	56	20.3	2	5	248	0.00	30.201 
09:25	34.9	34.9	34.9	55	20.4	1	5	248	0.00	30.201 
09:30	35.2	35.2	35.2	54	20.2	2	7	248	0.00	30.200 
09:35	35.5	35.5	35.5	54	20.5	2	6	248	0.00	30.200 
09:40	35.8	35.8	35.8	54	20.8	2	6	248	0.00	30.200 
09:45	36.0	36.0	36.0	54	21.0	1	6	248	0.00	30.194 
09:50	36.5	36.5	36.5	53	21.0	2	8	248	0.00	30.194 
09:55	36.8	36.8	36.8	51	20.4	2	5	248	0.00	30.194 
10:00	37.2	37.2	37.2	51	20.8	1	3	248	0.00	30.193 
10:05	37.5	37.5	37.5	50	20.6	2	6	248	0.00	30.193 
10:10	37.9	37.9	37.9	50	20.9	1	6	248	0.00	30.193 
10:15	38.2	38.2	38.2	49	20.7	1	7	248	0.00	30.185 
10:20	38.5	38.5	38.5	49	21.0	2	11	248	0.00	30.185 
10:25	38.8	38.8	38.8	49	21.3	2	6	270	0.00	30.185 
10:30	39.1	39.1	39.1	48	21.1	1	6	270	0.00	30.187 
10:35	39.5	39.5	39.5	47	21.0	2	7	248	0.00	30.187 
10:40	39.9	39.9	39.9	47	21.3	2	6	248	0.00	30.187 
10:45	40.3	40.3	40.3	46	21.2	2	6	248	0.00	30.186 
10:50	40.6	40.6	40.6	44	20.4	2	7	248	0.00	30.186 
10:55	40.8	40.8	40.8	45	21.1	2	10	248	0.00	30.186 
11:00	41.1	41.1	41.1	44	20.9	2	7	248	0.00	30.178 
11:05	41.5	41.5	41.5	43	20.7	2	6	248	0.00	30.178 
11:10	41.8	41.8	41.8	42	20.4	3	11	248	0.00	30.178 
11:15	42.1	42.1	42.1	43	21.2	2	7	248	0.00	30.174 
11:20	42.2	42.2	42.2	42	20.8	3	9	248	0.00	30.174 
11:25	42.5	42.5	42.5	43	21.6	1	5	248	0.00	30.174 
11:30	42.9	42.9	42.9	43	22.0	1	7	248	0.00	30.165 
11:35	43.2	43.2	43.2	42	21.7	1	6	248	0.00	30.165 
11:40	43.3	43.3	43.3	41	21.2	2	7	248	0.00	30.165 
11:45	43.6	43.6	43.6	40	20.9	1	6	248	0.00	30.154 
11:50	43.8	43.8	43.8	40	21.1	1	6	248	0.00	30.154 
11:55	44.1	44.1	44.1	41	21.9	2	9	270	0.00	30.154 
12:00	44.5	44.5	44.5	38	20.5	2	7	248	0.00	30.141 
12:05	44.8	44.8	44.8	38	20.8	2	6	248	0.00	30.141 
12:10	45.2	45.2	45.2	37	20.5	3	7	248	0.00	30.141 
12:15	45.4	45.4	45.4	37	20.7	2	7	248	0.00	30.135 
12:20	45.7	45.7	45.7	35	19.6	2	6	248	0.00	30.135 
12:25	46.1	46.1	46.1	37	21.3	1	6	248	0.00	30.135 
12:30	46.4	46.4	46.4	35	20.3	2	7	248	0.00	30.126 
12:35	46.7	46.7	46.7	35	20.5	3	12	248	0.00	30.126 
12:40	47.0	47.0	47.0	35	20.8	2	6	248	0.00	30.126 
12:45	47.1	47.1	47.1	34	20.2	2	7	270	0.00	30.116 
12:50	47.4	47.4	47.4	33	19.8	2	7	248	0.00	30.116 
12:55	47.7	47.7	47.7	35	21.4	1	9	248	0.00	30.116 
13:00	48.0	48.0	48.0	32	19.6	3	8	248	0.00	30.104 
13:05	48.2	48.2	48.2	31	19.0	2	10	248	0.00	30.104 
13:10	48.3	48.3	48.3	30	18.3	3	10	248	0.00	30.104 
13:15	48.6	48.6	48.6	31	19.3	1	7	248	0.00	30.103 
13:20	48.9	48.9	48.9	31	19.6	2	7	248	0.00	30.103 
13:25	49.1	49.1	49.1	30	19.0	2	11	248	0.00	30.103 
13:30	49.4	49.4	49.4	29	18.5	2	8	248	0.00	30.096 
13:35	49.5	49.5	49.5	28	17.8	2	12	248	0.00	30.096 
13:40	49.6	49.6	49.6	29	18.7	1	6	270	0.00	30.096 
13:45	49.8	49.8	49.8	29	18.8	2	5	248	0.00	30.088 
13:50	50.1	50.1	50.1	27	17.4	3	11	248	0.00	30.088 
13:55	50.4	50.4	50.4	28	18.5	3	7	248	0.00	30.088 
14:00	50.5	50.5	50.5	27	17.8	2	7	270	0.00	30.081 
14:05	50.8	50.8	50.8	27	18.0	2	6	248	0.00	30.081 
14:10	51.0	51.0	51.0	27	18.2	2	7	248	0.00	30.081 
14:15	51.1	51.1	51.1	26	17.4	2	9	248	0.00	30.073 
14:20	51.3	51.3	51.3	25	16.7	2	7	248	0.00	30.073 
14:25	51.3	51.3	51.3	26	17.6	2	9	248	0.00	30.073 
14:30	51.4	51.4	51.4	25	16.8	3	7	248	0.00	30.070 
14:35	51.6	51.6	51.6	25	16.9	3	9	248	0.00	30.070 
14:40	51.6	51.6	51.6	27	18.7	2	7	248	0.00	30.070 
14:45	51.6	51.6	51.6	26	17.9	2	10	248	0.00	30.063 
14:50	51.6	51.6	51.6	27	18.7	2	6	248	0.00	30.063 
14:55	51.6	51.6	51.6	27	18.7	2	8	248	0.00	30.063 
15:00	51.6	51.6	51.6	27	18.7	2	6	248	0.00	30.062 
15:05	51.9	51.9	51.9	27	19.0	1	4	248	0.00	30.062 
15:10	52.2	52.2	52.2	26	18.4	2	6	248	0.00	30.062 
15:15	52.3	52.3	52.3	26	18.4	1	6	248	0.00	30.055 
15:20	52.6	52.6	52.6	26	18.7	2	6	248	0.00	30.055 
15:25	52.8	52.8	52.8	26	18.9	1	5	248	0.00	30.055 
15:30	52.8	52.8	52.8	25	18.0	2	9	248	0.00	30.055 
15:35	52.3	52.3	52.3	25	17.5	2	6	225	0.00	30.055 
15:40	51.9	51.9	51.9	25	17.2	2	5	225	0.00	30.055 
15:45	51.7	51.7	51.7	27	18.8	1	5	248	0.00	30.053 
15:50	51.7	51.7	51.7	25	17.0	2	6	248	0.00	30.053 
15:55	51.6	51.6	51.6	25	16.9	2	7	270	0.00	30.053 
16:00	51.6	51.6	51.6	27	18.7	1	6	248	0.00	30.053 
16:05	51.4	51.4	51.4	26	17.7	2	7	248	0.00	30.053 
16:10	51.1	51.1	51.1	26	17.4	2	11	248	0.00	30.053 
16:15	51.1	51.1	51.1	25	16.5	1	7	248	0.00	30.055 
16:20	51.0	51.0	51.0	26	17.3	1	3	225	0.00	30.055 
16:25	50.5	50.5	50.5	26	16.9	1	5	248	0.00	30.055 
16:30	50.2	50.2	50.2	26	16.7	1	5	248	0.00	30.054 
16:35	49.9	49.9	49.9	25	15.5	1	4	248	0.00	30.054 
16:40	49.8	49.8	49.8	27	17.2	1	4	248	0.00	30.054 
16:45	49.5	49.5	49.5	27	16.9	1	4	248	0.00	30.051 
16:50	49.2	49.2	49.2	28	17.5	0	3	248	0.00	30.051 
16:55	48.9	48.9	48.9	27	16.4	1	4	248	0.00	30.051 
17:00	48.8	48.8	48.8	27	16.3	1	3	248	0.00	30.049 
17:05	48.5	48.5	48.5	28	16.9	0	2	225	0.00	30.049 
17:10	48.3	48.3	48.3	28	16.7	1	3	225	0.00	30.049 
17:15	48.0	48.0	48.0	29	17.3	1	7	0	0.00	30.044 
17:20	47.6	47.6	47.6	29	16.9	1	3	248	0.00	30.044 
17:25	47.3	47.3	47.3	31	18.2	0	2	248	0.00	30.044 
17:30	46.8	46.8	46.8	31	17.8	0	2	248	0.00	30.043 
17:35	46.5	46.5	46.5	33	19.0	1	4	270	0.00	30.043 
17:40	46.4	46.4	46.4	34	19.6	1	3	225	0.00	30.043 
17:45	46.4	46.4	46.4	35	20.3	1	3	248	0.00	30.050 
17:50	46.2	46.2	46.2	35	20.1	1	4	248	0.00	30.050 
17:55	46.1	46.1	46.1	36	20.6	0	7	248	0.00	30.050 
18:00	45.8	45.8	45.8	36	20.4	1	4	248	0.00	30.047 
18:05	45.7	45.7	45.7	36	20.3	1	4	248	0.00	30.047 
18:10	45.7	45.7	45.7	35	19.6	1	7	248	0.00	30.047 
18:15	45.7	45.7	45.7	35	19.6	0	4	248	0.00	30.049 
18:20	45.7	45.7	45.7	35	19.6	1	5	248	0.00	30.049 
18:25	45.8	45.8	45.8	34	19.0	1	4	248	0.00	30.049 
18:30	45.8	45.8	45.8	34	19.0	1	4	248	0.00	30.059 
18:35	45.7	45.7	45.7	34	19.0	0	3	248	0.00	30.059 
18:40	45.5	45.5	45.5	34	18.8	0	4	248	0.00	30.059 
18:45	45.4	45.4	45.4	34	18.7	1	5	248	0.00	30.062 
18:50	45.4	45.4	45.4	34	18.7	0	5	248	0.00	30.062 
18:55	45.2	45.2	45.2	34	18.5	0	4	248	0.00	30.062 
19:00	45.1	45.1	45.1	34	18.4	1	3	248	0.00	30.061 
19:05	44.9	44.9	44.9	35	18.9	0	3	248	0.00	30.061 
19:10	44.6	44.6	44.6	35	18.7	0	2	248	0.00	30.061 
19:15	44.5	44.5	44.5	35	18.6	0	3	248	0.00	30.062 
19:20	44.2	44.2	44.2	35	18.3	0	1	248	0.00	30.062 
19:25	44.1	44.1	44.1	36	18.9	0	3	248	0.00	30.062 
19:30	43.8	43.8	43.8	37	19.2	0	3	248	0.00	30.057 
19:35	43.6	43.6	43.6	38	19.7	0	4	248	0.00	30.057 
19:40	43.3	43.3	43.3	38	19.4	0	2	248	0.00	30.057 
19:45	43.2	43.2	43.2	39	19.9	1	4	248	0.00	30.061 
19:50	43.2	43.2	43.2	38	19.3	0	3	248	0.00	30.061 
19:55	43.1	43.1	43.1	39	19.8	0	3	248	0.00	30.061 
20:00	43.1	43.1	43.1	39	19.8	0	4	248	0.00	30.059 
20:05	43.1	43.1	43.1	39	19.8	0	3	248	0.00	30.059 
20:10	43.1	43.1	43.1	39	19.8	0	3	248	0.00	30.059 
20:15	42.9	42.9	42.9	39	19.7	1	4	248	0.00	30.046 
20:20	42.9	42.9	42.9	40	20.3	1	3	248	0.00	30.046 
20:25	42.9	42.9	42.9	39	19.7	1	5	248	0.00	30.046 
20:30	43.1	43.1	43.1	39	19.8	1	5	248	0.00	30.046 
20:35	43.1	43.1	43.1	39	19.8	1	5	248	0.00	30.046 
20:40	43.1	43.1	43.1	39	19.8	0	4	248	0.00	30.046 
20:45	43.1	43.1	43.1	39	19.8	1	4	248	0.00	30.049 
20:50	43.1	43.1	43.1	39	19.8	1	4	248	0.00	30.049 
20:55	43.1	43.1	43.1	40	20.4	0	2	248	0.00	30.049 
21:00	43.1	43.1	43.1	39	19.8	1	3	248	0.00	30.057 
21:05	42.9	42.9	42.9	40	20.3	1	4	248	0.00	30.057 
21:10	42.8	42.8	42.8	40	20.2	1	4	248	0.00	30.057 
21:15	42.8	42.8	42.8	40	20.2	1	7	248	0.00	30.051 
21:20	42.6	42.6	42.6	40	20.0	0	3	248	0.00	30.051 
21:25	42.6	42.6	42.6	40	20.0	2	5	248	0.00	30.051 
21:30	42.8	42.8	42.8	39	19.6	1	4	248	0.00	30.054 
21:35	42.8	42.8	42.8	40	20.2	1	6	248	0.00	30.054 
21:40	42.8	42.8	42.8	39	19.6	1	5	248	0.00	30.054 
21:45	42.8	42.8	42.8	39	19.6	1	6	248	0.00	30.054 
21:50	42.8	42.8	42.8	39	19.6	1	7	248	0.00	30.054 
21:55	42.8	42.8	42.8	39	19.6	1	3	248	0.00	30.054 
22:00	42.6	42.6	42.6	40	20.0	0	3	248	0.00	30.045 
22:05	42.3	42.3	42.3	40	19.7	1	4	248	0.00	30.045 
22:10	42.3	42.3	42.3	39	19.1	1	3	248	0.00	30.045 
22:15	42.3	42.3	42.3	39	19.1	1	6	248	0.00	30.051 
22:20	42.3	42.3	42.3	39	19.1	1	4	248	0.00	30.051 
22:25	42.3	42.3	42.3	40	19.7	0	3	248	0.00	30.051 
22:30	42.2	42.2	42.2	40	19.6	0	2	248	0.00	30.056 
22:35	42.1	42.1	42.1	40	19.5	1	4	248	0.00	30.056 
22:40	42.2	42.2	42.2	40	19.6	1	5	248	0.00	30.056 
22:45	42.2	42.2	42.2	40	19.6	1	3	248	0.00	30.058 
22:50	42.1	42.1	42.1	40	19.5	0	4	248	0.00	30.058 
22:55	41.9	41.9	41.9	40	19.4	0	3	248	0.00	30.058 
23:00	41.9	41.9	41.9	40	19.4	1	3	248	0.00	30.058 
23:05	41.9	41.9	41.9	40	19.4	0	3	248	0.00	30.058 
23:10	41.9	41.9	41.9	40	19.4	1	3	248	0.00	30.058 
23:15	41.9	41.9	41.9	41	19.9	0	2	248	0.00	30.056 
23:20	41.9	41.9	41.9	40	19.4	1	4	248	0.00	30.056 
23:25	42.1	42.1	42.1	40	19.5	1	4	248	0.00	30.056 
23:30	42.1	42.1	42.1	41	20.1	0	2	248	0.00	30.055 
23:35	41.9	41.9	41.9	40	19.4	0	2	248	0.00	30.055 
23:40	42.1	42.1	42.1	40	19.5	0	4	248	0.00	30.055 
23:45	42.1	42.1	42.1	40	19.5	1	4	248	0.00	30.054 
23:50	42.2	42.2	42.2	40	19.6	1	5	248	0.00	30.054 
23:55	42.3	42.3	42.3	40	19.7	1	5	248	0.00	30.054 

CoCoRaHS
IN-AL-39
A2 Web Hosting
Creative Commons License
GoDaddy
search engine by freefind advanced

loaded 2018-11-16 23:19:28 • last modified 2010-11-18 10:43:29
Privacy PolicyDisclaimer
• wx.awcolley.com is powered by PmWiki v.2002016 •
• all content (unless otherwise noted) © 2018 A W Colley